Time;durP1;ratioP1;P1;durP2;ratioP2;P2;SDS_P1;SDS_P2;PMS_P1;PMS_P2;Temp;Humidity;BMP_temperature;BMP_pressure;BME280_temperature;BME280_humidity;BME280_pressure;Samples;Min_cycle;Max_cycle;Signal;HPM_P1;HPM_P2
2021/12/26 00:02:23;;;;;;;59.27;16.27;;;5.50;99.90;;;;;;4937457;29;20531;-65
2021/12/26 00:04:50;;;;;;;105.90;19.40;;;5.30;99.90;;;;;;4937615;29;20420;-65
2021/12/26 00:07:15;;;;;;;112.97;19.30;;;5.30;99.90;;;;;;4936996;29;20780;-66
2021/12/26 00:09:41;;;;;;;89.63;16.13;;;5.40;99.90;;;;;;4936900;29;20422;-66
2021/12/26 00:12:07;;;;;;;47.13;15.23;;;5.40;99.90;;;;;;4937448;29;20208;-65
2021/12/26 00:14:33;;;;;;;116.67;19.87;;;5.40;99.90;;;;;;4937498;29;20200;-65
2021/12/26 00:16:58;;;;;;;36.50;14.00;;;5.40;99.90;;;;;;4937371;29;20430;-66
2021/12/26 00:19:24;;;;;;;100.50;17.40;;;5.40;99.90;;;;;;4937393;29;20306;-65
2021/12/26 00:21:50;;;;;;;77.57;17.63;;;5.50;99.90;;;;;;4937295;29;20226;-65
2021/12/26 00:24:16;;;;;;;60.57;17.10;;;5.50;99.90;;;;;;4937269;29;20417;-66
2021/12/26 00:26:42;;;;;;;68.57;17.30;;;5.50;99.90;;;;;;4936974;29;20182;-65
2021/12/26 00:29:07;;;;;;;135.17;18.87;;;5.50;99.90;;;;;;4937078;29;20182;-66
2021/12/26 00:31:33;;;;;;;80.13;17.77;;;5.50;99.90;;;;;;4937060;29;20286;-65
2021/12/26 00:33:59;;;;;;;44.53;15.07;;;5.50;99.90;;;;;;4937154;29;20174;-65
2021/12/26 00:36:25;;;;;;;40.07;15.03;;;5.50;99.90;;;;;;4936775;29;20170;-65
2021/12/26 00:38:50;;;;;;;86.27;18.20;;;5.50;99.90;;;;;;4937117;29;20181;-66
2021/12/26 00:41:16;;;;;;;51.73;17.10;;;5.50;99.90;;;;;;4936832;29;20441;-66
2021/12/26 00:43:42;;;;;;;95.53;19.30;;;5.50;99.90;;;;;;4936914;29;20585;-65
2021/12/26 00:46:07;;;;;;;82.17;18.17;;;5.50;99.90;;;;;;4936779;29;20434;-65
2021/12/26 00:48:34;;;;;;;68.47;16.70;;;5.40;99.90;;;;;;4936845;29;20229;-65
2021/12/26 00:50:59;;;;;;;35.00;16.43;;;5.40;99.90;;;;;;4936715;29;20205;-66
2021/12/26 00:53:25;;;;;;;32.67;15.33;;;5.50;99.90;;;;;;4936868;29;20429;-65
2021/12/26 00:55:51;;;;;;;96.53;18.33;;;5.50;99.90;;;;;;4936572;29;20264;-65
2021/12/26 00:58:17;;;;;;;61.10;15.10;;;5.40;99.90;;;;;;4936770;29;20192;-66
2021/12/26 01:00:46;;;;;;;72.40;17.20;;;5.40;99.90;;;;;;4936523;29;20424;-66
2021/12/26 01:03:13;;;;;;;87.30;20.13;;;5.50;99.90;;;;;;4936505;29;20543;-65
2021/12/26 01:05:42;;;;;;;116.83;19.40;;;5.50;99.90;;;;;;4936234;29;20796;-65
2021/12/26 01:08:10;;;;;;;51.23;16.30;;;5.50;99.90;;;;;;4951197;29;20425;-66
2021/12/26 01:10:38;;;;;;;41.57;15.93;;;5.50;99.90;;;;;;4936201;29;20797;-66
2021/12/26 01:13:15;;;;;;;90.53;17.97;;;5.50;99.90;;;;;;4936378;29;20429;-66
2021/12/26 01:15:42;;;;;;;158.57;21.77;;;5.50;99.90;;;;;;4935538;29;20914;-66
2021/12/26 01:18:08;;;;;;;47.30;17.27;;;5.40;99.90;;;;;;4936392;29;20433;-66
2021/12/26 01:23:27;;;;;;;75.83;16.47;;;5.40;99.90;;;;;;4913869;29;20277;-66
2021/12/26 01:25:53;;;;;;;87.40;17.63;;;5.40;99.90;;;;;;4935755;29;20436;-65
2021/12/26 01:28:21;;;;;;;65.50;17.00;;;5.50;99.90;;;;;;4936015;29;20797;-66
2021/12/26 01:30:48;;;;;;;97.93;17.80;;;5.50;99.90;;;;;;4936011;29;20421;-66
2021/12/26 01:33:16;;;;;;;122.13;19.00;;;5.50;99.90;;;;;;4936109;29;20421;-65
2021/12/26 01:35:42;;;;;;;104.37;16.77;;;5.50;99.90;;;;;;4935747;29;20421;-65
2021/12/26 01:38:13;;;;;;;66.10;17.63;;;5.40;99.90;;;;;;4935922;29;20413;-66
2021/12/26 01:40:45;;;;;;;104.63;18.33;;;5.40;99.90;;;;;;4935827;29;20911;-66
2021/12/26 01:43:12;;;;;;;49.37;14.90;;;5.40;99.90;;;;;;4935809;29;20469;-65
2021/12/26 01:45:37;;;;;;;57.73;16.17;;;5.40;99.90;;;;;;4935581;29;20429;-66
2021/12/26 01:48:05;;;;;;;56.20;14.73;;;5.30;99.90;;;;;;4935800;29;20916;-65
2021/12/26 01:50:31;;;;;;;31.93;13.60;;;5.30;99.90;;;;;;4935775;29;20184;-65
2021/12/26 01:52:57;;;;;;;67.97;14.63;;;5.30;99.90;;;;;;4935662;29;20951;-66
2021/12/26 01:55:26;;;;;;;34.20;12.00;;;5.30;99.90;;;;;;4935303;29;20436;-66
2021/12/26 01:57:54;;;;;;;24.30;12.30;;;5.30;99.90;;;;;;4934300;29;20437;-65
2021/12/26 02:00:21;;;;;;;27.17;12.50;;;5.20;99.90;;;;;;4935598;29;20429;-66
2021/12/26 02:02:48;;;;;;;24.33;12.70;;;5.20;99.90;;;;;;4935460;29;20509;-66
2021/12/26 02:05:14;;;;;;;21.70;12.80;;;5.30;99.90;;;;;;4935196;29;20504;-65
2021/12/26 02:07:39;;;;;;;22.17;11.63;;;5.30;99.90;;;;;;4935462;29;20979;-65
2021/12/26 02:10:06;;;;;;;40.27;12.37;;;5.30;99.90;;;;;;4935229;29;20193;-65
2021/12/26 02:12:31;;;;;;;52.50;12.43;;;5.30;99.90;;;;;;4935159;29;20714;-65
2021/12/26 02:14:57;;;;;;;33.17;12.17;;;5.30;99.90;;;;;;4934901;29;20429;-66
2021/12/26 02:17:22;;;;;;;15.33;10.20;;;5.30;99.90;;;;;;4935414;29;20177;-65
2021/12/26 02:19:50;;;;;;;23.87;12.63;;;5.20;99.90;;;;;;4935297;29;20178;-66
2021/12/26 02:22:23;;;;;;;18.90;12.40;;;5.20;99.90;;;;;;4935117;29;20312;-66
2021/12/26 02:27:32;;;;;;;21.33;11.10;;;5.30;99.90;;;;;;4934872;29;20508;-66
2021/12/26 02:30:07;;;;;;;15.57;11.47;;;5.30;99.90;;;;;;4935108;29;20460;-65
2021/12/26 02:32:33;;;;;;;16.13;10.83;;;5.30;99.90;;;;;;4934505;28;20468;-66
2021/12/26 02:34:59;;;;;;;17.03;11.20;;;5.30;99.90;;;;;;4934802;29;20433;-66
2021/12/26 02:37:26;;;;;;;43.00;12.87;;;5.40;99.90;;;;;;4934933;29;20512;-66
2021/12/26 02:39:52;;;;;;;18.03;11.00;;;5.40;99.90;;;;;;4935009;29;20437;-66
2021/12/26 02:42:23;;;;;;;20.97;11.83;;;5.30;99.90;;;;;;4934681;29;20465;-66
2021/12/26 02:44:49;;;;;;;28.83;11.30;;;5.40;99.90;;;;;;4934963;29;20433;-65
2021/12/26 02:47:37;;;;;;;21.83;10.10;;;5.30;99.90;;;;;;4934682;29;20483;-65
2021/12/26 02:50:06;;;;;;;25.33;10.60;;;5.30;99.90;;;;;;4934799;29;20431;-66
2021/12/26 02:52:32;;;;;;;15.03;10.07;;;5.30;99.90;;;;;;4934755;29;20445;-65
2021/12/26 02:54:59;;;;;;;20.60;9.93;;;5.40;99.90;;;;;;4934735;29;20432;-66
2021/12/26 02:57:25;;;;;;;13.13;9.90;;;5.30;99.90;;;;;;4934585;29;20253;-66
2021/12/26 02:59:51;;;;;;;17.33;9.50;;;5.20;99.90;;;;;;4934951;29;20834;-65
2021/12/26 03:02:16;;;;;;;13.30;10.43;;;5.30;99.90;;;;;;4934753;29;20521;-66
2021/12/26 03:04:42;;;;;;;17.93;10.00;;;5.40;99.90;;;;;;4934767;29;20674;-66
2021/12/26 03:07:07;;;;;;;13.97;9.70;;;5.40;99.90;;;;;;4934414;29;20188;-66
2021/12/26 03:09:44;;;;;;;18.70;10.03;;;5.30;99.90;;;;;;4934692;29;20181;-66
2021/12/26 03:12:10;;;;;;;15.13;10.10;;;5.40;99.90;;;;;;4934496;29;20201;-65
2021/12/26 03:14:38;;;;;;;17.67;10.73;;;5.30;99.90;;;;;;4934745;29;20413;-65
2021/12/26 03:17:04;;;;;;;25.03;10.27;;;5.30;99.90;;;;;;4934373;29;20433;-65
2021/12/26 03:19:34;;;;;;;21.33;10.00;;;5.30;99.90;;;;;;4934616;29;20498;-66
2021/12/26 03:22:00;;;;;;;16.87;9.23;;;5.30;99.90;;;;;;4934426;29;20585;-66
2021/12/26 03:24:26;;;;;;;20.90;9.93;;;5.30;99.90;;;;;;4934611;29;21137;-65
2021/12/26 03:26:58;;;;;;;13.33;9.90;;;5.30;99.90;;;;;;4934266;29;20182;-66
2021/12/26 03:29:24;;;;;;;18.03;10.37;;;5.20;99.90;;;;;;4934796;29;20181;-66
2021/12/26 03:31:49;;;;;;;15.93;10.80;;;5.10;99.90;;;;;;4934425;29;20453;-66
2021/12/26 03:34:16;;;;;;;19.57;11.80;;;5.10;99.90;;;;;;4934613;29;20182;-66
2021/12/26 03:36:42;;;;;;;12.20;9.80;;;5.10;99.90;;;;;;4934195;29;20204;-65
2021/12/26 03:39:08;;;;;;;13.47;10.60;;;5.20;99.90;;;;;;4934452;29;20431;-65
2021/12/26 03:41:34;;;;;;;12.00;9.30;;;5.30;99.90;;;;;;4934257;29;20793;-65
2021/12/26 03:44:00;;;;;;;13.83;10.10;;;5.30;99.90;;;;;;4936454;29;20181;-65
2021/12/26 03:46:26;;;;;;;11.17;9.87;;;5.30;99.90;;;;;;4937764;29;20994;-65
2021/12/26 03:48:52;;;;;;;13.47;10.30;;;5.40;99.90;;;;;;4936708;29;20429;-66
2021/12/26 03:51:19;;;;;;;13.70;10.37;;;5.30;99.90;;;;;;4937831;29;20797;-66
2021/12/26 03:53:45;;;;;;;13.53;10.70;;;5.20;99.90;;;;;;4938411;29;20174;-66
2021/12/26 03:56:10;;;;;;;11.47;9.80;;;5.20;99.90;;;;;;4937503;29;20575;-66
2021/12/26 03:58:38;;;;;;;15.90;10.43;;;5.20;99.90;;;;;;4937764;29;20190;-66
2021/12/26 04:01:04;;;;;;;16.60;10.17;;;5.20;99.90;;;;;;4937704;29;20197;-66
2021/12/26 04:03:29;;;;;;;12.77;10.17;;;5.30;99.90;;;;;;4937684;29;20839;-66
2021/12/26 04:05:55;;;;;;;14.70;9.97;;;5.40;99.90;;;;;;4937266;29;20429;-65
2021/12/26 04:08:21;;;;;;;22.03;10.87;;;5.40;99.90;;;;;;4937594;29;20170;-66
2021/12/26 04:10:47;;;;;;;14.33;10.37;;;5.40;99.90;;;;;;4937267;29;20193;-65
2021/12/26 04:13:12;;;;;;;12.70;9.93;;;5.30;99.90;;;;;;4937548;29;20264;-66
2021/12/26 04:15:39;;;;;;;16.13;10.83;;;5.30;99.90;;;;;;4937194;29;20432;-65
2021/12/26 04:18:04;;;;;;;12.27;9.23;;;5.40;99.90;;;;;;4937927;29;20520;-67
2021/12/26 04:20:30;;;;;;;18.20;9.70;;;5.30;99.90;;;;;;4937423;29;20489;-67
2021/12/26 04:22:57;;;;;;;14.63;11.57;;;5.30;99.90;;;;;;4937156;29;20245;-66
2021/12/26 04:25:22;;;;;;;14.13;11.00;;;5.30;99.90;;;;;;4937025;29;20541;-67
2021/12/26 04:27:48;;;;;;;14.90;11.53;;;5.30;99.90;;;;;;4937171;29;20421;-67
2021/12/26 04:30:15;;;;;;;25.47;11.00;;;5.40;99.90;;;;;;4937180;29;20182;-67
2021/12/26 04:32:41;;;;;;;14.60;9.90;;;5.40;99.90;;;;;;4935829;29;20460;-67
2021/12/26 04:35:08;;;;;;;15.67;11.23;;;5.30;99.90;;;;;;4936888;29;20433;-66
2021/12/26 04:37:34;;;;;;;14.13;9.90;;;5.30;99.90;;;;;;4937051;29;20244;-66
2021/12/26 04:40:01;;;;;;;17.63;11.47;;;5.30;99.90;;;;;;4937022;29;20463;-67
2021/12/26 04:42:26;;;;;;;13.03;9.03;;;5.40;99.90;;;;;;4936835;29;20465;-67
2021/12/26 04:44:53;;;;;;;12.83;9.50;;;5.30;99.90;;;;;;4936942;29;20801;-66
2021/12/26 04:47:19;;;;;;;16.80;10.23;;;5.30;99.90;;;;;;4936763;29;20166;-66
2021/12/26 04:49:44;;;;;;;16.37;10.60;;;5.30;99.90;;;;;;4936795;29;20428;-67
2021/12/26 04:52:10;;;;;;;15.30;10.03;;;5.30;99.90;;;;;;4936751;29;20540;-67
2021/12/26 04:54:35;;;;;;;15.20;10.67;;;5.40;99.90;;;;;;4936394;29;20548;-67
2021/12/26 04:57:01;;;;;;;30.87;11.67;;;5.40;99.90;;;;;;4936435;29;20181;-67
2021/12/26 04:59:27;;;;;;;15.20;10.73;;;5.40;99.90;;;;;;4936760;29;20188;-67
2021/12/26 05:01:54;;;;;;;19.00;11.80;;;5.40;99.90;;;;;;4936502;29;20260;-67
2021/12/26 05:04:20;;;;;;;18.20;11.00;;;5.30;99.90;;;;;;4936577;29;20663;-66
2021/12/26 05:06:47;;;;;;;15.43;10.03;;;5.40;99.90;;;;;;4936248;29;20911;-67
2021/12/26 05:09:14;;;;;;;29.40;11.17;;;5.40;99.90;;;;;;4936475;29;20421;-67
2021/12/26 05:11:39;;;;;;;35.77;13.43;;;5.40;99.90;;;;;;4936204;29;20472;-67
2021/12/26 05:14:05;;;;;;;17.00;11.30;;;5.40;99.90;;;;;;4936407;29;20430;-67
2021/12/26 05:16:31;;;;;;;21.27;13.40;;;5.40;99.90;;;;;;4936124;29;20233;-66
2021/12/26 05:18:56;;;;;;;25.57;13.13;;;5.30;99.90;;;;;;4936288;29;20658;-66
2021/12/26 05:21:22;;;;;;;18.83;11.20;;;5.40;99.90;;;;;;4936273;29;20212;-67
2021/12/26 05:23:47;;;;;;;15.10;11.20;;;5.40;99.90;;;;;;4936189;29;20209;-66
2021/12/26 05:26:13;;;;;;;39.00;14.10;;;5.50;99.90;;;;;;4935914;29;20704;-66
2021/12/26 05:28:38;;;;;;;21.90;12.40;;;5.40;99.90;;;;;;4936097;29;20177;-67
2021/12/26 05:31:04;;;;;;;32.07;12.50;;;5.40;99.90;;;;;;4936083;29;20262;-67
2021/12/26 05:33:30;;;;;;;33.77;14.13;;;5.40;99.90;;;;;;4936005;29;20266;-67
2021/12/26 05:35:55;;;;;;;28.07;13.70;;;5.30;99.90;;;;;;4935682;29;20189;-66
2021/12/26 05:38:21;;;;;;;30.70;13.57;;;5.30;99.90;;;;;;4936093;29;20205;-66
2021/12/26 05:40:46;;;;;;;20.50;12.97;;;5.20;99.90;;;;;;4935851;29;20310;-66
2021/12/26 05:43:12;;;;;;;26.10;11.93;;;5.30;99.90;;;;;;4935774;29;20300;-66
2021/12/26 05:45:38;;;;;;;31.17;13.80;;;5.40;99.90;;;;;;4935576;29;20184;-66
2021/12/26 05:48:04;;;;;;;31.23;14.57;;;5.40;99.90;;;;;;4934540;29;20185;-66
2021/12/26 05:50:29;;;;;;;53.77;14.87;;;5.50;99.90;;;;;;4935696;29;20950;-67
2021/12/26 05:52:55;;;;;;;32.30;15.30;;;5.40;99.90;;;;;;4934290;29;20544;-66
2021/12/26 05:55:21;;;;;;;27.30;14.23;;;5.30;99.90;;;;;;4935425;29;20215;-66
2021/12/26 05:57:47;;;;;;;63.53;14.90;;;5.40;99.90;;;;;;4935577;29;20186;-66
2021/12/26 06:00:16;;;;;;;29.43;13.70;;;5.40;99.90;;;;;;4935623;29;20188;-66
2021/12/26 06:02:41;;;;;;;39.87;15.97;;;5.30;99.90;;;;;;4935352;29;20468;-67
2021/12/26 06:05:07;;;;;;;72.40;15.23;;;5.20;99.90;;;;;;4935056;29;20425;-67
2021/12/26 06:07:33;;;;;;;38.27;14.53;;;5.10;99.90;;;;;;4934954;29;20178;-67
2021/12/26 06:09:59;;;;;;;33.07;14.30;;;5.20;99.90;;;;;;4935359;29;20887;-67
2021/12/26 06:12:24;;;;;;;28.60;15.30;;;5.20;99.90;;;;;;4935311;29;20204;-67
2021/12/26 06:14:50;;;;;;;30.00;13.97;;;5.20;99.90;;;;;;4934823;29;20543;-67
2021/12/26 06:17:15;;;;;;;35.90;14.20;;;5.30;99.90;;;;;;4935115;29;20185;-66
2021/12/26 06:19:41;;;;;;;40.67;14.77;;;5.40;99.90;;;;;;4935259;29;20189;-67
2021/12/26 06:22:07;;;;;;;41.57;14.10;;;5.40;99.90;;;;;;4935003;29;20213;-66
2021/12/26 06:24:33;;;;;;;44.93;15.17;;;5.40;99.90;;;;;;4935285;29;20178;-67
2021/12/26 06:26:59;;;;;;;50.23;13.30;;;5.50;99.90;;;;;;4934871;29;20437;-66
2021/12/26 06:29:24;;;;;;;17.80;11.93;;;5.50;99.90;;;;;;4935218;29;20169;-67
2021/12/26 06:31:50;;;;;;;27.27;13.67;;;5.50;99.90;;;;;;4935042;29;20205;-66
2021/12/26 06:34:15;;;;;;;68.10;16.60;;;5.50;99.90;;;;;;4935128;29;20182;-66
2021/12/26 06:36:41;;;;;;;27.77;14.50;;;5.40;99.90;;;;;;4934633;29;20185;-66
2021/12/26 06:39:07;;;;;;;28.97;15.30;;;5.40;99.90;;;;;;4935211;29;20181;-68
2021/12/26 06:41:33;;;;;;;36.30;14.07;;;5.50;99.90;;;;;;4934799;29;20812;-67
2021/12/26 06:43:59;;;;;;;32.57;14.27;;;5.40;99.90;;;;;;4934974;29;20201;-67
2021/12/26 06:46:24;;;;;;;32.33;13.57;;;5.50;99.90;;;;;;4934665;29;20525;-67
2021/12/26 06:48:50;;;;;;;34.93;15.27;;;5.50;99.90;;;;;;4934888;29;20174;-66
2021/12/26 06:51:16;;;;;;;21.33;13.83;;;5.40;99.90;;;;;;4934676;29;20256;-67
2021/12/26 06:53:41;;;;;;;23.73;13.63;;;5.40;99.90;;;;;;4933646;29;20187;-66
2021/12/26 06:56:07;;;;;;;24.80;13.10;;;5.50;99.90;;;;;;4934676;29;20268;-67
2021/12/26 06:58:33;;;;;;;25.57;12.83;;;5.50;99.90;;;;;;4934811;29;20185;-66
2021/12/26 07:00:59;;;;;;;25.20;13.40;;;5.50;99.90;;;;;;4934755;29;20197;-67
2021/12/26 07:03:24;;;;;;;24.33;12.50;;;5.50;99.90;;;;;;4934676;29;20475;-66
2021/12/26 07:05:50;;;;;;;31.60;15.40;;;5.50;99.90;;;;;;4934346;29;20955;-66
2021/12/26 07:08:16;;;;;;;22.63;12.70;;;5.60;99.90;;;;;;4934743;29;20177;-67
2021/12/26 07:10:43;;;;;;;22.10;14.17;;;5.60;99.90;;;;;;4934472;29;20207;-66
2021/12/26 07:13:08;;;;;;;23.07;13.10;;;5.60;99.90;;;;;;4935026;29;20623;-67
2021/12/26 07:15:34;;;;;;;20.60;14.10;;;5.60;99.90;;;;;;4933890;29;20425;-66
2021/12/26 07:17:59;;;;;;;21.80;13.53;;;5.60;99.90;;;;;;4936831;29;20189;-66
2021/12/26 07:20:25;;;;;;;23.93;14.83;;;5.60;99.90;;;;;;4938365;29;20185;-67
2021/12/26 07:22:50;;;;;;;17.30;12.40;;;5.50;99.90;;;;;;4938270;29;20217;-67
2021/12/26 07:25:16;;;;;;;26.40;16.23;;;5.60;99.90;;;;;;4938143;29;20182;-67
2021/12/26 07:27:42;;;;;;;30.83;20.67;;;5.60;99.90;;;;;;4938345;29;20169;-67
2021/12/26 07:30:09;;;;;;;31.20;20.30;;;5.70;99.90;;;;;;4938256;29;20900;-67
2021/12/26 07:32:35;;;;;;;26.10;18.60;;;5.60;99.90;;;;;;4938087;29;20205;-67
2021/12/26 07:35:00;;;;;;;71.43;20.40;;;5.60;99.90;;;;;;4937936;29;20425;-67
2021/12/26 07:37:27;;;;;;;39.97;16.93;;;5.50;99.90;;;;;;4938102;29;20185;-66
2021/12/26 07:39:53;;;;;;;40.40;17.90;;;5.60;99.90;;;;;;4938241;29;20180;-66
2021/12/26 07:42:18;;;;;;;31.53;15.60;;;5.60;99.90;;;;;;4937911;29;20469;-67
2021/12/26 07:44:44;;;;;;;42.90;17.10;;;5.70;99.90;;;;;;4937941;29;20512;-66
2021/12/26 07:47:10;;;;;;;26.73;15.67;;;5.80;99.90;;;;;;4937748;29;20647;-66
2021/12/26 07:49:36;;;;;;;30.70;15.00;;;5.80;99.90;;;;;;4937821;29;20213;-67
2021/12/26 07:52:03;;;;;;;25.20;17.07;;;5.90;99.90;;;;;;4937979;29;20484;-68
2021/12/26 07:54:28;;;;;;;23.77;15.47;;;5.90;99.90;;;;;;4937957;29;20174;-67
2021/12/26 07:56:55;;;;;;;23.30;15.07;;;6.00;99.90;;;;;;4937576;29;20904;-67
2021/12/26 07:59:21;;;;;;;25.77;16.70;;;6.00;99.90;;;;;;4937920;29;20210;-67
2021/12/26 08:01:47;;;;;;;23.17;15.17;;;6.10;99.90;;;;;;4937582;29;20449;-66
2021/12/26 08:04:14;;;;;;;23.63;15.53;;;6.20;99.90;;;;;;4937629;29;20417;-67
2021/12/26 08:06:40;;;;;;;24.27;16.80;;;6.20;99.90;;;;;;4937332;29;20421;-67
2021/12/26 08:09:06;;;;;;;23.10;15.30;;;6.10;99.90;;;;;;4937630;29;20421;-67
2021/12/26 08:11:32;;;;;;;21.50;12.80;;;6.20;99.90;;;;;;4937405;29;20468;-66
2021/12/26 08:13:59;;;;;;;19.90;14.70;;;6.10;99.90;;;;;;4937481;29;21022;-67
2021/12/26 08:16:26;;;;;;;18.87;14.30;;;6.10;99.90;;;;;;4937142;29;20440;-67
2021/12/26 08:18:52;;;;;;;18.40;13.10;;;6.10;99.90;;;;;;4937443;29;20886;-67
2021/12/26 08:21:18;;;;;;;17.50;13.40;;;6.20;99.90;;;;;;4937291;29;20821;-67
2021/12/26 08:23:44;;;;;;;20.50;13.53;;;6.20;99.90;;;;;;4937252;29;20457;-67
2021/12/26 08:26:09;;;;;;;19.70;14.63;;;5.90;99.90;;;;;;4935767;29;20400;-67
2021/12/26 08:28:35;;;;;;;20.13;14.43;;;5.90;99.90;;;;;;4936615;29;20169;-67
2021/12/26 08:31:01;;;;;;;26.90;16.27;;;6.00;99.90;;;;;;4937031;29;20197;-67
2021/12/26 08:33:26;;;;;;;22.40;15.30;;;5.90;99.90;;;;;;4937199;29;20178;-67
2021/12/26 08:35:52;;;;;;;18.90;13.33;;;5.90;99.90;;;;;;4936832;29;20174;-67
2021/12/26 08:38:21;;;;;;;22.90;14.67;;;5.90;99.90;;;;;;4937132;29;20178;-67
2021/12/26 08:40:54;;;;;;;24.77;15.33;;;5.90;99.90;;;;;;4937030;29;20455;-66
2021/12/26 08:43:20;;;;;;;19.00;13.60;;;5.90;99.90;;;;;;4935748;29;20869;-67
2021/12/26 08:45:46;;;;;;;21.10;14.20;;;5.80;99.90;;;;;;4936894;29;20480;-67
2021/12/26 08:48:12;;;;;;;18.80;12.97;;;6.00;99.90;;;;;;4935860;29;20266;-67
2021/12/26 08:50:38;;;;;;;19.20;13.40;;;6.00;99.90;;;;;;4936821;29;20851;-66
2021/12/26 08:53:04;;;;;;;18.17;14.07;;;5.90;99.90;;;;;;4937125;29;20554;-66
2021/12/26 08:55:30;;;;;;;16.47;13.03;;;5.80;99.90;;;;;;4936484;29;20177;-67
2021/12/26 08:57:55;;;;;;;20.27;13.73;;;5.80;99.90;;;;;;4936657;29;20485;-66
2021/12/26 09:00:22;;;;;;;17.00;12.00;;;5.90;99.90;;;;;;4936703;29;20185;-66
2021/12/26 09:02:49;;;;;;;15.97;12.00;;;6.00;99.90;;;;;;4936665;29;20214;-67
2021/12/26 09:05:15;;;;;;;18.70;12.40;;;6.00;99.90;;;;;;4936331;29;20422;-67
2021/12/26 09:07:41;;;;;;;18.17;14.00;;;6.10;99.90;;;;;;4936638;29;20428;-66
2021/12/26 09:10:08;;;;;;;16.97;12.10;;;6.10;99.90;;;;;;4936409;29;20190;-66
2021/12/26 09:12:35;;;;;;;18.83;13.00;;;5.90;99.90;;;;;;4936352;29;20817;-66
2021/12/26 09:15:00;;;;;;;19.83;14.17;;;5.80;99.90;;;;;;4936271;29;20417;-67
2021/12/26 09:17:26;;;;;;;18.93;14.50;;;5.80;99.90;;;;;;4936403;29;20472;-67
2021/12/26 09:19:52;;;;;;;18.40;13.13;;;5.90;99.90;;;;;;4936324;29;20178;-68
2021/12/26 09:22:17;;;;;;;19.00;15.00;;;5.80;99.90;;;;;;4936143;29;20718;-67
2021/12/26 09:24:44;;;;;;;15.13;11.87;;;6.00;99.90;;;;;;4936333;29;20647;-67
2021/12/26 09:27:10;;;;;;;16.93;12.77;;;6.00;99.90;;;;;;4934619;29;20170;-67
2021/12/26 09:29:35;;;;;;;18.70;13.40;;;6.00;99.90;;;;;;4936085;29;20503;-67
2021/12/26 09:32:04;;;;;;;18.93;14.47;;;6.10;99.90;;;;;;4935983;29;20209;-67
2021/12/26 09:34:32;;;;;;;17.90;13.03;;;6.00;99.90;;;;;;4936016;29;20174;-66
2021/12/26 09:36:58;;;;;;;17.30;12.90;;;6.00;99.90;;;;;;4935656;29;20457;-67
2021/12/26 09:39:24;;;;;;;18.60;14.37;;;6.10;99.90;;;;;;4935847;29;20951;-67
2021/12/26 09:41:50;;;;;;;14.60;12.87;;;6.20;99.90;;;;;;4934743;29;20532;-67
2021/12/26 09:44:16;;;;;;;16.97;13.03;;;6.10;99.90;;;;;;4935857;29;20688;-67
2021/12/26 09:46:42;;;;;;;18.30;13.27;;;6.10;99.90;;;;;;4935644;29;20425;-67
2021/12/26 09:49:08;;;;;;;15.40;12.77;;;6.10;99.90;;;;;;4935800;29;20502;-66
2021/12/26 09:51:34;;;;;;;18.87;12.53;;;6.10;99.90;;;;;;4935663;29;20185;-67
2021/12/26 09:54:00;;;;;;;18.63;12.87;;;6.20;99.90;;;;;;4935636;29;20178;-67
2021/12/26 09:56:26;;;;;;;16.37;13.50;;;6.30;99.90;;;;;;4935350;29;20954;-67
2021/12/26 09:59:06;;;;;;;19.10;14.07;;;6.30;99.90;;;;;;4935625;29;20426;-66
2021/12/26 10:01:39;;;;;;;17.73;13.07;;;6.30;99.90;;;;;;4935717;29;20268;-67
2021/12/26 10:04:37;;;;;;;16.33;13.73;;;6.40;99.90;;;;;;4934261;29;20433;-67
2021/12/26 10:07:13;;;;;;;15.77;12.90;;;6.50;99.90;;;;;;4933944;29;20429;-66
2021/12/26 10:09:41;;;;;;;16.97;12.33;;;6.60;99.90;;;;;;4935375;29;20417;-67
2021/12/26 10:12:08;;;;;;;14.00;12.53;;;6.80;99.90;;;;;;4935248;29;21185;-66
2021/12/26 10:14:37;;;;;;;16.57;11.80;;;6.80;99.90;;;;;;4935427;29;20445;-66
2021/12/26 10:17:03;;;;;;;13.17;11.20;;;7.20;99.90;;;;;;4934956;29;20453;-66
2021/12/26 10:19:32;;;;;;;14.83;12.07;;;7.70;99.90;;;;;;4970952;23;20531;-66
2021/12/26 10:22:01;;;;;;;12.63;11.20;;;7.80;99.90;;;;;;4954234;28;20189;-67
2021/12/26 10:24:32;;;;;;;20.50;11.70;;;8.00;99.90;;;;;;4954179;29;20444;-66
2021/12/26 10:27:04;;;;;;;12.50;10.47;;;8.50;99.90;;;;;;4953653;29;20421;-67
2021/12/26 10:29:35;;;;;;;14.40;12.27;;;8.80;99.90;;;;;;4954282;28;20441;-66
2021/12/26 10:32:06;;;;;;;18.80;13.43;;;9.10;99.90;;;;;;4953843;28;20435;-66
2021/12/26 10:34:36;;;;;;;13.80;11.27;;;9.00;99.90;;;;;;4954300;28;20429;-66
2021/12/26 10:37:05;;;;;;;13.33;11.07;;;8.80;99.90;;;;;;4953468;28;20483;-67
2021/12/26 10:39:38;;;;;;;16.80;12.40;;;8.60;99.90;;;;;;4954184;28;20436;-66
2021/12/26 10:42:07;;;;;;;13.40;11.47;;;8.20;99.90;;;;;;4953672;28;20461;-67
2021/12/26 10:44:42;;;;;;;19.30;13.97;;;7.90;99.90;;;;;;4954208;28;20424;-66
2021/12/26 10:47:16;;;;;;;15.13;12.37;;;7.60;99.90;;;;;;4953301;28;20420;-66
2021/12/26 10:49:58;;;;;;;14.30;12.63;;;7.50;99.90;;;;;;4954034;28;20440;-68
2021/12/26 10:52:35;;;;;;;14.67;12.43;;;7.50;99.90;;;;;;4953327;28;20416;-68
2021/12/26 10:55:11;;;;;;;17.33;13.77;;;7.50;99.90;;;;;;4953795;28;20463;-66
2021/12/26 10:57:46;;;;;;;13.97;12.50;;;7.40;99.90;;;;;;4953641;28;20491;-66
2021/12/26 11:00:16;;;;;;;20.47;13.43;;;7.40;99.90;;;;;;4953610;28;20475;-66
2021/12/26 11:02:48;;;;;;;14.93;13.20;;;7.30;99.90;;;;;;4953770;28;20471;-65
2021/12/26 11:05:23;;;;;;;18.00;14.17;;;7.30;99.90;;;;;;4953456;28;20941;-66
2021/12/26 11:07:58;;;;;;;17.97;13.90;;;7.50;99.90;;;;;;4953664;28;20420;-66
2021/12/26 11:10:36;;;;;;;17.23;14.27;;;7.50;99.90;;;;;;4953580;28;20415;-67
2021/12/26 11:13:05;;;;;;;15.07;12.93;;;7.90;99.90;;;;;;4953915;28;20432;-66
2021/12/26 11:15:33;;;;;;;12.33;11.00;;;8.80;99.90;;;;;;4953185;28;20433;-66
2021/12/26 11:18:03;;;;;;;16.10;14.10;;;9.30;99.90;;;;;;4953616;28;20456;-66
2021/12/26 11:20:36;;;;;;;15.20;11.63;;;10.00;99.90;;;;;;4953307;28;20431;-66
2021/12/26 11:23:09;;;;;;;13.30;11.20;;;11.00;99.90;;;;;;4953749;28;20468;-65
2021/12/26 11:25:36;;;;;;;13.43;12.03;;;11.20;99.90;;;;;;4953083;28;20427;-66
2021/12/26 11:28:02;;;;;;;12.13;10.70;;;10.80;99.90;;;;;;4953543;28;20519;-66
2021/12/26 11:30:28;;;;;;;12.70;11.40;;;10.60;99.90;;;;;;4953384;28;20507;-66
2021/12/26 11:32:54;;;;;;;13.10;11.80;;;10.90;99.90;;;;;;4953201;28;20292;-67
2021/12/26 11:35:20;;;;;;;13.47;10.90;;;12.70;99.90;;;;;;4953426;28;20626;-66
2021/12/26 11:37:46;;;;;;;11.70;10.53;;;13.10;99.90;;;;;;4953487;28;20421;-67
2021/12/26 11:40:14;;;;;;;10.33;9.23;;;12.80;99.90;;;;;;4953889;28;20217;-66
2021/12/26 11:42:57;;;;;;;11.90;10.20;;;13.00;99.90;;;;;;4953515;28;20201;-66
2021/12/26 11:45:35;;;;;;;11.70;10.50;;;13.20;99.90;;;;;;4953262;28;20417;-67
2021/12/26 11:48:24;;;;;;;13.10;11.73;;;13.20;99.90;;;;;;4953661;28;20479;-66
2021/12/26 11:50:52;;;;;;;9.40;8.50;;;14.30;99.90;;;;;;4953609;28;20424;-67
2021/12/26 11:53:57;;;;;;;10.00;9.10;;;13.50;99.90;;;;;;4953531;28;20426;-66
2021/12/26 11:56:40;;;;;;;10.77;9.63;;;12.60;99.90;;;;;;4942186;28;20416;-66
2021/12/26 11:59:24;;;;;;;11.37;10.23;;;12.10;99.90;;;;;;4953394;28;20456;-67
2021/12/26 12:01:50;;;;;;;10.53;9.50;;;11.80;99.90;;;;;;4953375;28;20448;-66
2021/12/26 12:04:20;;;;;;;13.40;12.07;;;11.20;99.90;;;;;;4954244;28;20416;-66
2021/12/26 12:06:48;;;;;;;11.23;10.07;;;10.80;99.90;;;;;;4956626;28;20640;-66
2021/12/26 12:09:23;;;;;;;11.23;9.97;;;10.90;99.90;;;;;;4956871;28;20478;-66
2021/12/26 12:12:00;;;;;;;12.20;10.83;;;11.20;99.90;;;;;;4956860;28;20416;-66
2021/12/26 12:14:47;;;;;;;10.07;9.00;;;11.00;99.90;;;;;;4956372;28;20452;-67
2021/12/26 12:17:32;;;;;;;12.57;11.17;;;10.70;99.90;;;;;;4956467;28;20432;-66
2021/12/26 12:20:12;;;;;;;11.30;10.17;;;10.60;99.90;;;;;;4956427;28;20969;-66
2021/12/26 12:23:03;;;;;;;18.10;16.20;;;10.40;99.90;;;;;;4956538;28;20455;-67
2021/12/26 12:25:34;;;;;;;12.43;10.80;;;10.10;99.90;;;;;;4956290;28;20906;-66
2021/12/26 12:28:24;;;;;;;13.70;11.93;;;10.00;99.90;;;;;;4956393;28;20443;-66
2021/12/26 12:30:55;;;;;;;9.27;8.37;;;9.90;99.90;;;;;;4956455;28;20475;-66
2021/12/26 12:33:31;;;;;;;8.60;7.83;;;10.00;99.90;;;;;;4956397;28;20421;-66
2021/12/26 12:36:04;;;;;;;8.50;7.70;;;9.70;99.90;;;;;;4956014;28;20428;-67
2021/12/26 12:38:40;;;;;;;8.10;7.30;;;9.50;99.90;;;;;;4956408;28;20444;-66
2021/12/26 12:41:29;;;;;;;9.10;8.20;;;9.50;99.90;;;;;;4956338;28;20448;-66
2021/12/26 12:43:57;;;;;;;7.87;7.07;;;9.30;99.90;;;;;;4956058;28;20464;-66
2021/12/26 12:46:23;;;;;;;8.13;7.27;;;9.30;99.90;;;;;;4955999;28;20412;-66
2021/12/26 12:49:09;;;;;;;8.47;7.30;;;9.20;99.90;;;;;;4955993;28;20445;-66